If you wish to contribute or participate in the discussions about articles you are invited to join SKYbrary as a registered user

 Actions

Dijon-Bourgogne Airport

From SKYbrary Wiki

LFSD
Airport
ICAO: LFSD – IATA: DIJ
Summary
Name Dijon-Bourgogne Airport
Region Europe
Territory France FR.gif
Location , Bourgogne
Serving Dijon
Elevation 221.285 m
726 ft
726 ft221.285 m
Type medium airport
Coordinates 47° 16' 8.00" N, 5° 5' 24.00" E
Runways
Designator Length Width Surface ROPS
2/20 1800 m5,905.512 ft
36 m118.11 ft
ASP /
18/36 2400 m7,874.016 ft
45 m147.638 ft
ASP /


METAR
Observation LFSD 240300Z AUTO 33004KT CAVOK 15/13 Q1020
Station Dijon
Date/Time 24 August 2019 03:00:00
Wind direction 330°
Wind speed 04 kts
Lowest cloud amount clouds and visibility OK
Temperature 15°C
Dew point 13°C
Humidity 87%
QNH 1020 hPa
Weather condition n/a